Time;durP1;ratioP1;P1;durP2;ratioP2;P2;SDS_P1;SDS_P2;PMS_P1;PMS_P2;Temp;Humidity;BMP_temperature;BMP_pressure;BME280_temperature;BME280_humidity;BME280_pressure;Samples;Min_cycle;Max_cycle;Signal;HPM_P1;HPM_P2
2023/03/27 00:01:00;;;;;;;14.32;3.60;;;5.50;82.20;;;;;;5024785;28;20045;-76
2023/03/27 00:03:27;;;;;;;11.23;2.63;;;5.50;82.30;;;;;;5013309;28;20642;-74
2023/03/27 00:06:04;;;;;;;7.13;2.15;;;5.50;82.40;;;;;;5022939;28;20045;-74
2023/03/27 00:08:30;;;;;;;9.60;2.58;;;5.50;82.50;;;;;;5026300;28;20022;-76
2023/03/27 00:10:56;;;;;;;15.02;2.67;;;5.50;82.50;;;;;;5026082;28;20052;-79
2023/03/27 00:13:22;;;;;;;9.63;2.90;;;5.60;82.60;;;;;;5025528;28;20645;-76
2023/03/27 00:15:49;;;;;;;8.48;2.72;;;5.50;82.60;;;;;;5032459;28;20104;-75
2023/03/27 00:18:15;;;;;;;11.30;2.90;;;5.50;82.70;;;;;;5028579;28;20040;-76
2023/03/27 00:20:41;;;;;;;8.52;2.70;;;5.60;82.80;;;;;;5027043;28;20366;-77
2023/03/27 00:23:07;;;;;;;11.77;3.47;;;5.60;82.80;;;;;;5006926;28;20020;-81
2023/03/27 00:25:34;;;;;;;11.85;2.70;;;5.50;82.90;;;;;;5034084;28;20548;-77
2023/03/27 00:27:59;;;;;;;10.73;3.08;;;5.60;82.90;;;;;;5025348;28;20052;-75
2023/03/27 00:30:27;;;;;;;9.10;2.60;;;5.60;83.10;;;;;;5023732;28;20057;-79
2023/03/27 00:32:54;;;;;;;9.82;2.60;;;5.50;83.30;;;;;;5024296;28;20327;-73
2023/03/27 00:35:21;;;;;;;10.82;3.03;;;5.50;83.50;;;;;;5025030;28;20021;-73
2023/03/27 00:37:47;;;;;;;14.20;3.40;;;5.60;83.50;;;;;;5025521;28;20041;-78
2023/03/27 00:40:19;;;;;;;11.38;2.88;;;5.60;83.50;;;;;;5023577;28;20386;-74
2023/03/27 00:42:51;;;;;;;11.20;3.85;;;5.60;83.60;;;;;;5024615;28;20033;-77
2023/03/27 00:45:22;;;;;;;9.38;2.67;;;5.60;83.70;;;;;;5026701;28;20467;-75
2023/03/27 00:47:55;;;;;;;10.35;2.53;;;5.50;83.20;;;;;;5019686;28;20046;-81
2023/03/27 00:50:26;;;;;;;8.90;2.33;;;5.30;81.70;;;;;;5018904;28;20112;-79
2023/03/27 00:52:57;;;;;;;8.63;2.40;;;5.30;81.70;;;;;;5026005;28;20056;-74
2023/03/27 00:55:25;;;;;;;8.32;2.55;;;5.30;81.70;;;;;;5038615;28;20038;-75
2023/03/27 00:57:56;;;;;;;10.63;3.03;;;5.30;81.70;;;;;;5024564;28;20037;-75
2023/03/27 01:00:22;;;;;;;9.90;2.50;;;5.20;81.80;;;;;;5022939;28;20025;-82
2023/03/27 01:02:49;;;;;;;8.75;2.58;;;5.30;81.90;;;;;;5023718;28;20022;-74
2023/03/27 01:05:17;;;;;;;7.00;2.22;;;5.30;82.00;;;;;;5025280;28;20528;-75
2023/03/27 01:07:43;;;;;;;7.90;2.40;;;5.30;81.70;;;;;;5023741;28;20441;-79
2023/03/27 01:10:10;;;;;;;8.50;2.78;;;5.30;81.70;;;;;;5026355;28;20021;-79
2023/03/27 01:12:49;;;;;;;7.15;2.13;;;5.30;81.80;;;;;;5024928;28;20526;-75
2023/03/27 01:15:30;;;;;;;8.13;2.45;;;5.30;82.00;;;;;;5023247;28;20033;-74
2023/03/27 01:18:06;;;;;;;10.32;3.10;;;5.40;82.30;;;;;;5025755;28;20029;-75
2023/03/27 01:21:04;;;;;;;10.73;2.40;;;5.30;82.80;;;;;;5016771;28;20415;-80
2023/03/27 01:23:33;;;;;;;10.40;2.47;;;5.20;82.90;;;;;;5034462;28;20045;-79
2023/03/27 01:26:05;;;;;;;12.50;2.80;;;5.30;83.10;;;;;;5025171;28;20090;-74
2023/03/27 01:28:43;;;;;;;8.98;2.50;;;5.20;83.30;;;;;;5024436;28;20097;-74
2023/03/27 01:31:42;;;;;;;8.45;2.78;;;5.20;83.50;;;;;;5036109;28;20525;-77
2023/03/27 01:34:25;;;;;;;7.78;2.55;;;5.10;83.60;;;;;;5023370;28;20228;-74
2023/03/27 01:37:23;;;;;;;10.68;2.88;;;5.10;83.90;;;;;;5022413;28;20487;-75
2023/03/27 01:40:27;;;;;;;10.40;2.75;;;5.10;84.10;;;;;;5022479;28;20493;-81
2023/03/27 01:43:01;;;;;;;10.57;3.15;;;5.00;84.30;;;;;;5009952;28;20045;-77
2023/03/27 01:45:38;;;;;;;8.10;2.88;;;5.00;84.60;;;;;;5024857;28;20052;-74
2023/03/27 01:48:13;;;;;;;9.52;2.65;;;5.00;84.60;;;;;;5024182;28;20065;-75
2023/03/27 01:50:49;;;;;;;10.32;3.45;;;5.00;84.80;;;;;;5030327;28;20493;-78
2023/03/27 01:53:27;;;;;;;10.60;2.90;;;5.00;85.00;;;;;;5021474;28;20079;-74
2023/03/27 01:55:57;;;;;;;7.65;2.60;;;5.00;85.20;;;;;;5028529;28;20580;-76
2023/03/27 01:58:30;;;;;;;11.77;4.00;;;5.00;85.20;;;;;;5026321;28;20096;-75
2023/03/27 02:01:00;;;;;;;9.10;2.75;;;5.10;85.40;;;;;;5019423;28;20033;-74
2023/03/27 02:03:38;;;;;;;7.50;2.70;;;5.10;85.50;;;;;;5009982;28;20176;-81
2023/03/27 02:06:16;;;;;;;7.35;2.50;;;5.10;85.60;;;;;;5021908;28;20055;-81
2023/03/27 02:08:51;;;;;;;10.63;2.92;;;5.10;85.70;;;;;;5020166;28;20356;-81
2023/03/27 02:11:17;;;;;;;8.00;3.30;;;5.10;85.80;;;;;;5023049;28;20637;-78
2023/03/27 02:13:49;;;;;;;7.35;2.90;;;5.20;85.90;;;;;;5024267;28;20163;-75
2023/03/27 02:16:22;;;;;;;6.72;2.60;;;5.20;85.90;;;;;;5005387;28;20100;-77
2023/03/27 02:18:57;;;;;;;8.05;2.88;;;5.10;86.00;;;;;;5023595;28;20025;-76
2023/03/27 02:21:23;;;;;;;11.05;3.05;;;5.20;86.00;;;;;;5029110;28;20041;-76
2023/03/27 02:23:49;;;;;;;7.40;3.03;;;5.20;86.10;;;;;;5006833;28;20033;-76
2023/03/27 02:26:15;;;;;;;8.50;2.92;;;5.20;86.20;;;;;;5029017;28;20389;-75
2023/03/27 02:28:46;;;;;;;8.65;3.03;;;5.20;86.30;;;;;;5030848;28;20045;-79
2023/03/27 02:31:35;;;;;;;11.02;3.38;;;5.20;86.30;;;;;;5030652;28;20096;-74
2023/03/27 02:34:25;;;;;;;10.38;3.30;;;5.10;86.10;;;;;;5029482;28;20033;-77
2023/03/27 02:37:20;;;;;;;10.07;2.90;;;5.10;85.70;;;;;;5024832;28;20609;-74
2023/03/27 02:40:30;;;;;;;8.70;2.25;;;5.10;85.00;;;;;;5031687;28;20025;-79
2023/03/27 02:43:11;;;;;;;6.72;2.50;;;5.10;83.40;;;;;;5034490;28;20080;-75
2023/03/27 02:45:50;;;;;;;10.70;2.17;;;5.10;83.30;;;;;;5022140;28;20037;-74
2023/03/27 02:48:32;;;;;;;8.60;2.13;;;5.00;83.70;;;;;;5027098;28;20057;-74
2023/03/27 02:51:04;;;;;;;6.70;2.13;;;4.90;84.10;;;;;;5042791;28;20025;-74
2023/03/27 02:53:46;;;;;;;9.18;2.10;;;4.80;84.50;;;;;;5029478;28;20021;-75
2023/03/27 02:56:15;;;;;;;6.97;2.20;;;4.90;84.70;;;;;;5029508;28;20046;-74
2023/03/27 02:58:57;;;;;;;7.55;2.03;;;4.70;84.80;;;;;;5030336;28;20029;-78
2023/03/27 03:01:31;;;;;;;7.72;2.72;;;4.70;84.80;;;;;;5030431;28;20057;-77
2023/03/27 03:04:21;;;;;;;9.88;2.35;;;4.60;84.70;;;;;;5020865;28;20029;-76
2023/03/27 03:06:49;;;;;;;5.35;2.50;;;4.60;83.30;;;;;;5017911;28;20045;-82
2023/03/27 03:09:15;;;;;;;5.75;1.75;;;4.60;83.40;;;;;;5027228;28;20160;-78
2023/03/27 03:11:47;;;;;;;7.45;1.88;;;4.70;83.40;;;;;;5032926;28;20477;-75
2023/03/27 03:14:13;;;;;;;8.25;1.92;;;4.70;82.90;;;;;;5028438;28;20054;-76
2023/03/27 03:16:39;;;;;;;4.32;1.73;;;4.80;82.50;;;;;;5040885;28;20041;-74
2023/03/27 03:19:05;;;;;;;4.85;1.85;;;4.80;82.40;;;;;;5027620;28;20030;-78
2023/03/27 03:21:31;;;;;;;9.32;2.63;;;4.80;82.50;;;;;;5030627;28;20060;-75
2023/03/27 03:23:57;;;;;;;10.05;2.30;;;4.80;82.70;;;;;;5042393;28;20029;-77
2023/03/27 03:26:23;;;;;;;6.57;1.95;;;4.80;82.70;;;;;;5028290;28;20061;-74
2023/03/27 03:28:48;;;;;;;7.05;2.17;;;4.80;82.50;;;;;;5028159;28;20022;-75
2023/03/27 03:31:15;;;;;;;7.88;2.10;;;4.80;82.50;;;;;;5028196;28;20056;-80
2023/03/27 03:33:41;;;;;;;4.18;1.83;;;4.80;82.60;;;;;;5026355;28;20504;-74
2023/03/27 03:36:07;;;;;;;8.70;2.97;;;4.70;82.70;;;;;;5026227;28;20048;-75
2023/03/27 03:38:34;;;;;;;8.77;2.50;;;4.70;82.80;;;;;;5023899;28;20030;-78
2023/03/27 03:41:00;;;;;;;9.73;2.15;;;4.60;83.00;;;;;;5026321;28;20084;-75
2023/03/27 03:43:28;;;;;;;9.77;3.13;;;4.60;83.00;;;;;;5030298;28;20021;-72
2023/03/27 03:45:54;;;;;;;6.78;2.25;;;4.50;82.90;;;;;;5027009;28;20041;-77
2023/03/27 03:48:21;;;;;;;5.38;2.22;;;4.40;82.90;;;;;;5026989;28;20063;-74
2023/03/27 03:50:48;;;;;;;9.80;2.38;;;4.40;83.00;;;;;;5021750;28;20029;-75
2023/03/27 03:53:16;;;;;;;6.63;1.92;;;4.30;83.00;;;;;;5023671;28;20034;-78
2023/03/27 03:55:43;;;;;;;6.78;2.47;;;4.20;83.10;;;;;;5027715;28;20040;-84
2023/03/27 03:58:09;;;;;;;8.55;2.15;;;4.20;83.30;;;;;;5028075;28;20033;-76
2023/03/27 04:00:37;;;;;;;6.07;2.55;;;4.10;83.50;;;;;;5027758;28;20033;-74
2023/03/27 04:03:07;;;;;;;8.55;2.63;;;4.10;83.70;;;;;;5026481;28;20029;-73
2023/03/27 04:05:33;;;;;;;7.82;2.33;;;4.10;83.90;;;;;;5023873;28;20025;-75
2023/03/27 04:07:59;;;;;;;5.85;2.33;;;4.00;84.10;;;;;;5027170;28;20030;-77
2023/03/27 04:10:26;;;;;;;8.15;2.30;;;3.90;84.30;;;;;;5025781;28;20393;-76
2023/03/27 04:12:52;;;;;;;9.60;2.70;;;3.90;84.60;;;;;;5040701;28;20040;-76
2023/03/27 04:15:18;;;;;;;5.90;2.55;;;3.90;84.80;;;;;;5023878;28;20364;-84
2023/03/27 04:17:47;;;;;;;7.55;2.80;;;3.80;85.00;;;;;;5027102;28;20037;-74
2023/03/27 04:20:13;;;;;;;7.55;2.42;;;3.80;85.20;;;;;;5025097;28;20021;-75
2023/03/27 04:22:45;;;;;;;10.98;4.05;;;3.70;85.60;;;;;;5031577;28;20025;-75
2023/03/27 04:25:13;;;;;;;9.60;2.83;;;3.80;85.60;;;;;;5025348;28;20342;-78
2023/03/27 04:27:39;;;;;;;10.43;3.20;;;3.80;86.00;;;;;;5029859;28;20041;-74
2023/03/27 04:30:12;;;;;;;6.50;2.67;;;3.80;85.90;;;;;;5024067;28;20112;-81
2023/03/27 04:32:39;;;;;;;8.18;3.60;;;3.90;86.00;;;;;;5028367;28;20060;-75
2023/03/27 04:35:04;;;;;;;13.57;3.13;;;3.90;86.10;;;;;;5023472;28;20571;-74
2023/03/27 04:37:30;;;;;;;13.30;3.58;;;3.90;86.50;;;;;;5020733;28;20037;-79
2023/03/27 04:39:56;;;;;;;7.72;3.00;;;3.90;86.60;;;;;;5018589;28;20065;-74
2023/03/27 04:42:22;;;;;;;6.60;2.70;;;3.90;86.70;;;;;;5015256;28;20088;-74
2023/03/27 04:44:51;;;;;;;11.27;3.25;;;3.80;86.90;;;;;;5017602;28;20025;-76
2023/03/27 04:47:17;;;;;;;7.10;2.72;;;3.80;86.90;;;;;;5015674;28;20096;-76
2023/03/27 04:49:49;;;;;;;9.93;3.30;;;3.80;87.00;;;;;;5019786;28;20420;-75
2023/03/27 04:52:16;;;;;;;7.63;2.72;;;3.70;87.10;;;;;;5016434;28;20049;-80
2023/03/27 04:54:42;;;;;;;10.63;2.40;;;3.70;87.10;;;;;;5016256;28;20025;-81
2023/03/27 04:57:08;;;;;;;9.82;2.63;;;3.60;87.20;;;;;;5026851;28;20049;-79
2023/03/27 04:59:34;;;;;;;9.25;2.83;;;3.60;87.30;;;;;;5032796;28;20029;-81
2023/03/27 05:02:00;;;;;;;8.15;2.72;;;3.60;87.40;;;;;;5027136;28;20120;-79
2023/03/27 05:04:27;;;;;;;9.60;2.95;;;3.60;87.30;;;;;;5032769;28;20086;-76
2023/03/27 05:06:54;;;;;;;7.60;2.65;;;3.60;87.30;;;;;;5027434;28;20467;-77
2023/03/27 05:09:20;;;;;;;7.55;3.00;;;3.60;87.30;;;;;;5031816;28;20035;-75
2023/03/27 05:11:48;;;;;;;9.90;2.90;;;3.50;87.30;;;;;;5027917;28;20049;-74
2023/03/27 05:14:23;;;;;;;8.10;2.83;;;3.50;87.30;;;;;;5026841;28;20029;-81
2023/03/27 05:16:50;;;;;;;;;;;3.50;87.30;;;;;;5022572;28;20068;-79
2023/03/27 05:19:18;;;;;;;10.93;4.18;;;3.50;87.40;;;;;;5027769;28;20009;-82
2023/03/27 05:21:45;;;;;;;10.43;3.72;;;3.50;87.40;;;;;;5025709;28;20036;-75
2023/03/27 05:24:12;;;;;;;11.43;4.68;;;3.40;87.40;;;;;;5024212;28;20029;-79
2023/03/27 05:26:38;;;;;;;11.00;4.07;;;3.40;87.50;;;;;;5024215;28;20482;-74
2023/03/27 05:29:04;;;;;;;10.00;4.30;;;3.40;87.60;;;;;;5024924;28;20030;-73
2023/03/27 05:31:31;;;;;;;13.00;3.53;;;3.40;87.70;;;;;;5027087;28;20043;-76
2023/03/27 05:33:57;;;;;;;11.88;4.07;;;3.40;87.70;;;;;;5024953;28;20429;-76
2023/03/27 05:36:26;;;;;;;13.90;4.45;;;3.40;87.80;;;;;;5028127;28;20045;-76
2023/03/27 05:38:53;;;;;;;10.43;3.83;;;3.40;87.90;;;;;;5023886;28;20111;-74
2023/03/27 05:41:19;;;;;;;9.20;4.00;;;3.40;88.00;;;;;;5028780;28;20484;-77
2023/03/27 05:43:45;;;;;;;12.50;4.78;;;3.40;87.90;;;;;;5022752;28;20445;-74
2023/03/27 05:46:12;;;;;;;10.43;4.28;;;3.40;87.80;;;;;;5031070;28;20503;-74
2023/03/27 05:48:38;;;;;;;12.93;5.22;;;3.50;87.80;;;;;;5026010;28;20083;-78
2023/03/27 05:51:05;;;;;;;11.25;4.22;;;3.50;87.80;;;;;;5028032;28;20444;-81
2023/03/27 05:53:31;;;;;;;11.32;3.75;;;3.50;87.70;;;;;;5025163;28;20116;-76
2023/03/27 05:55:57;;;;;;;9.70;3.35;;;3.60;87.70;;;;;;5023315;28;20136;-73
2023/03/27 05:58:22;;;;;;;12.48;3.85;;;3.60;87.60;;;;;;5007937;28;20022;-83
2023/03/27 06:00:49;;;;;;;10.32;3.63;;;3.60;87.80;;;;;;5023225;28;20021;-74
2023/03/27 06:03:15;;;;;;;10.10;3.90;;;3.70;87.90;;;;;;5028109;28;20025;-77
2023/03/27 06:05:42;;;;;;;9.95;3.05;;;3.70;87.80;;;;;;5030776;28;20503;-77
2023/03/27 06:08:10;;;;;;;10.00;2.90;;;3.80;87.80;;;;;;5038930;28;20550;-72
2023/03/27 06:10:39;;;;;;;8.80;2.97;;;3.80;87.80;;;;;;5020259;28;20010;-74
2023/03/27 06:13:12;;;;;;;8.93;3.25;;;3.80;87.90;;;;;;5021823;28;20135;-81
2023/03/27 06:15:40;;;;;;;7.70;2.45;;;3.80;87.90;;;;;;5023842;28;20106;-74
2023/03/27 06:18:08;;;;;;;5.45;2.17;;;3.80;88.00;;;;;;5019120;28;20021;-75
2023/03/27 06:20:34;;;;;;;5.20;2.38;;;3.90;88.00;;;;;;5021711;28;20025;-73
2023/03/27 06:23:00;;;;;;;9.00;3.05;;;3.90;88.00;;;;;;5018468;28;20029;-75
2023/03/27 06:25:30;;;;;;;6.55;2.70;;;3.90;88.00;;;;;;5007909;28;20675;-73
2023/03/27 06:27:57;;;;;;;8.40;3.00;;;3.90;88.20;;;;;;5019556;28;20037;-73
2023/03/27 06:30:24;;;;;;;6.80;2.10;;;3.90;88.10;;;;;;5020635;28;20065;-74
2023/03/27 06:32:53;;;;;;;8.02;2.63;;;3.90;88.30;;;;;;5014846;28;20040;-73
2023/03/27 06:35:20;;;;;;;8.43;2.80;;;3.90;88.40;;;;;;5017009;28;20105;-73
2023/03/27 06:37:49;;;;;;;9.55;2.55;;;4.00;88.40;;;;;;5015660;28;20085;-73
2023/03/27 06:40:21;;;;;;;10.00;3.03;;;4.00;88.10;;;;;;5020105;28;20047;-74
2023/03/27 06:43:00;;;;;;;7.72;2.70;;;4.00;88.10;;;;;;4995019;28;20394;-75
2023/03/27 06:45:32;;;;;;;8.45;2.88;;;4.30;88.60;;;;;;5011301;28;20033;-74
2023/03/27 06:48:01;;;;;;;10.93;2.47;;;5.20;87.40;;;;;;5004949;28;20068;-73
2023/03/27 06:50:29;;;;;;;8.52;2.60;;;5.70;84.00;;;;;;5026942;28;20032;-73
2023/03/27 06:52:55;;;;;;;8.00;2.70;;;5.80;83.00;;;;;;5018256;28;20477;-73
2023/03/27 06:55:22;;;;;;;9.27;3.05;;;5.80;82.40;;;;;;5027345;28;20037;-74
2023/03/27 06:57:50;;;;;;;8.57;2.80;;;5.60;82.80;;;;;;5000009;28;20040;-74
2023/03/27 07:00:18;;;;;;;9.32;2.80;;;5.50;83.20;;;;;;5020089;28;20034;-74
2023/03/27 07:02:47;;;;;;;11.38;3.25;;;5.40;83.50;;;;;;5029017;28;20124;-74
2023/03/27 07:05:14;;;;;;;8.45;3.08;;;5.20;83.60;;;;;;5028892;28;20052;-74
2023/03/27 07:07:41;;;;;;;11.32;3.67;;;5.20;84.10;;;;;;5009150;28;20037;-74
2023/03/27 07:10:08;;;;;;;10.23;3.17;;;5.20;84.40;;;;;;5027719;28;20029;-73
2023/03/27 07:12:34;;;;;;;10.75;3.80;;;5.10;84.50;;;;;;5010793;28;20574;-73
2023/03/27 07:15:01;;;;;;;9.43;3.10;;;5.10;84.70;;;;;;5030407;28;20025;-74
2023/03/27 07:17:26;;;;;;;9.18;3.42;;;5.10;84.80;;;;;;5031948;28;20061;-73
2023/03/27 07:19:52;;;;;;;9.45;3.67;;;5.10;84.90;;;;;;5025068;28;20056;-74
2023/03/27 07:22:18;;;;;;;6.13;3.10;;;5.10;84.80;;;;;;5025351;28;20037;-73
2023/03/27 07:24:44;;;;;;;13.65;3.30;;;5.10;84.50;;;;;;5024389;28;20071;-73
2023/03/27 07:27:10;;;;;;;9.57;3.25;;;5.20;84.20;;;;;;5024382;28;20032;-73
2023/03/27 07:29:36;;;;;;;10.20;3.10;;;5.20;82.80;;;;;;5024947;28;20315;-72
2023/03/27 07:32:03;;;;;;;11.52;3.15;;;5.20;82.20;;;;;;5025471;28;20037;-76
2023/03/27 07:34:29;;;;;;;12.13;2.92;;;5.20;82.40;;;;;;5032378;28;20025;-75
2023/03/27 07:36:58;;;;;;;9.88;3.13;;;5.30;82.40;;;;;;5023079;28;20060;-76
2023/03/27 07:39:24;;;;;;;8.20;3.13;;;5.50;82.90;;;;;;5023852;28;20029;-74
2023/03/27 07:41:51;;;;;;;16.35;3.10;;;5.60;81.20;;;;;;5027656;28;20498;-74
2023/03/27 07:44:17;;;;;;;14.75;3.58;;;5.90;81.80;;;;;;5026744;28;20456;-75
2023/03/27 07:46:43;;;;;;;18.05;7.50;;;6.10;79.80;;;;;;5028876;28;20060;-74
2023/03/27 07:49:10;;;;;;;14.98;3.13;;;6.20;79.00;;;;;;5032121;28;20030;-74
2023/03/27 07:51:35;;;;;;;11.65;2.63;;;6.40;78.80;;;;;;5023130;28;20053;-73
2023/03/27 07:54:03;;;;;;;10.80;2.45;;;6.60;77.70;;;;;;5023043;28;20048;-73
2023/03/27 07:56:32;;;;;;;7.72;2.45;;;6.80;77.40;;;;;;5022241;28;20392;-74
2023/03/27 07:58:58;;;;;;;12.20;2.72;;;6.70;76.00;;;;;;5022872;28;20028;-73
2023/03/27 08:01:24;;;;;;;14.77;3.00;;;6.60;76.30;;;;;;5005363;28;20847;-74
2023/03/27 08:03:51;;;;;;;10.52;3.50;;;6.50;76.50;;;;;;5023144;28;20525;-74
2023/03/27 08:06:17;;;;;;;11.90;2.30;;;6.40;75.90;;;;;;5020387;28;20064;-74
2023/03/27 08:08:43;;;;;;;11.30;2.38;;;6.40;76.20;;;;;;5007338;28;20431;-74
2023/03/27 08:11:09;;;;;;;12.40;3.22;;;6.30;76.20;;;;;;5031519;28;20481;-73
2023/03/27 08:13:35;;;;;;;6.82;2.20;;;6.40;76.40;;;;;;5028295;28;20544;-73
2023/03/27 08:16:20;;;;;;;11.43;2.28;;;6.40;75.20;;;;;;5037394;28;20454;-74
2023/03/27 08:18:48;;;;;;;9.40;2.53;;;6.50;75.00;;;;;;5023717;28;20018;-74
2023/03/27 08:21:14;;;;;;;9.50;2.20;;;6.60;75.00;;;;;;5030855;28;20075;-74
2023/03/27 08:23:40;;;;;;;9.80;2.47;;;7.00;75.50;;;;;;5024969;28;20178;-73
2023/03/27 08:26:06;;;;;;;11.05;2.45;;;7.40;73.90;;;;;;5030442;28;20037;-73
2023/03/27 08:28:34;;;;;;;11.25;2.40;;;7.50;72.30;;;;;;5022903;28;20033;-73
2023/03/27 08:31:01;;;;;;;8.82;2.22;;;7.80;72.60;;;;;;5023048;28;20482;-74
2023/03/27 08:33:27;;;;;;;12.40;3.60;;;7.70;72.90;;;;;;5017205;28;20048;-75
2023/03/27 08:35:55;;;;;;;7.05;1.85;;;7.40;73.40;;;;;;5028639;28;20546;-73
2023/03/27 08:38:22;;;;;;;5.65;1.58;;;6.50;76.20;;;;;;5021554;28;20043;-75
2023/03/27 08:40:53;;;;;;;5.22;1.50;;;5.20;79.10;;;;;;5021554;28;20022;-75
2023/03/27 08:43:38;;;;;;;5.63;1.83;;;4.70;81.00;;;;;;5029009;28;20052;-74
2023/03/27 08:46:38;;;;;;;7.57;2.05;;;4.60;81.70;;;;;;5024946;28;20468;-75
2023/03/27 08:49:14;;;;;;;5.30;2.05;;;4.60;81.40;;;;;;5037575;28;20506;-75
2023/03/27 08:51:46;;;;;;;7.60;2.60;;;4.70;80.70;;;;;;5026846;28;20037;-75
2023/03/27 08:54:32;;;;;;;6.50;2.03;;;5.00;80.20;;;;;;5026487;28;20029;-75
2023/03/27 08:56:58;;;;;;;3.08;1.38;;;5.10;79.00;;;;;;5022301;28;20448;-74
2023/03/27 08:59:27;;;;;;;5.30;1.90;;;5.10;78.10;;;;;;5029281;28;20025;-74
2023/03/27 09:02:15;;;;;;;5.80;1.98;;;5.30;77.30;;;;;;5007586;28;20057;-75
2023/03/27 09:04:49;;;;;;;8.82;1.80;;;5.70;77.80;;;;;;5018772;28;20052;-74
2023/03/27 09:07:44;;;;;;;6.45;2.13;;;5.90;77.20;;;;;;5026484;28;20045;-75
2023/03/27 09:10:28;;;;;;;7.97;2.03;;;6.10;76.30;;;;;;5031248;28;20025;-72
2023/03/27 09:13:22;;;;;;;6.60;1.90;;;6.10;74.30;;;;;;5023486;28;20033;-74
2023/03/27 09:16:01;;;;;;;11.00;2.50;;;6.30;73.80;;;;;;5030439;28;20036;-73
2023/03/27 09:18:26;;;;;;;6.22;2.03;;;6.60;72.80;;;;;;5023838;28;20025;-73
2023/03/27 09:21:04;;;;;;;6.57;2.08;;;6.60;71.30;;;;;;5026389;28;20064;-72
2023/03/27 09:23:40;;;;;;;7.47;1.90;;;6.50;71.50;;;;;;5023020;28;20030;-73
2023/03/27 09:26:31;;;;;;;12.60;2.75;;;6.60;71.90;;;;;;5020040;28;20069;-74
2023/03/27 09:29:10;;;;;;;7.80;2.13;;;6.50;72.20;;;;;;5029911;28;20025;-76
2023/03/27 09:31:42;;;;;;;6.97;2.80;;;6.60;72.20;;;;;;5023444;28;20080;-73
2023/03/27 09:34:13;;;;;;;10.55;2.00;;;6.80;72.10;;;;;;5026405;28;20025;-73
2023/03/27 09:36:40;;;;;;;8.68;2.47;;;7.10;71.70;;;;;;5023171;28;20044;-74
2023/03/27 09:39:11;;;;;;;11.10;2.58;;;7.40;71.40;;;;;;5024235;28;20033;-75
2023/03/27 09:41:47;;;;;;;12.70;3.55;;;7.70;69.60;;;;;;5017475;28;20033;-74
2023/03/27 09:44:24;;;;;;;13.02;3.15;;;8.00;70.30;;;;;;5023673;28;20044;-74
2023/03/27 09:47:05;;;;;;;12.90;2.75;;;8.30;67.70;;;;;;5031375;28;20140;-73
2023/03/27 09:49:33;;;;;;;9.88;2.60;;;8.00;66.20;;;;;;5007937;28;20076;-74
2023/03/27 09:51:59;;;;;;;17.35;3.88;;;7.80;66.90;;;;;;5028264;28;20032;-74
2023/03/27 09:54:30;;;;;;;11.13;2.80;;;8.00;67.30;;;;;;5001559;28;20570;-75
2023/03/27 09:57:03;;;;;;;13.60;3.58;;;8.20;66.80;;;;;;5024963;28;20041;-74
2023/03/27 09:59:36;;;;;;;13.65;2.85;;;8.20;65.30;;;;;;5020450;28;20512;-73
2023/03/27 10:02:15;;;;;;;11.98;3.17;;;8.40;64.70;;;;;;5029025;28;20059;-74
2023/03/27 10:04:57;;;;;;;8.88;2.80;;;8.30;55.40;;;;;;5033995;28;20037;-74
2023/03/27 10:07:24;;;;;;;11.18;2.42;;;8.50;55.70;;;;;;5041745;28;20213;-73
2023/03/27 10:10:10;;;;;;;9.88;2.38;;;8.40;55.10;;;;;;5029844;28;20033;-74
2023/03/27 10:12:37;;;;;;;13.48;3.28;;;8.30;57.30;;;;;;5025946;28;20052;-74
2023/03/27 10:15:05;;;;;;;8.90;2.15;;;8.50;58.00;;;;;;5021491;28;20051;-75
2023/03/27 10:17:38;;;;;;;8.25;2.60;;;8.80;58.10;;;;;;5022667;28;20045;-76
2023/03/27 10:20:16;;;;;;;10.90;2.20;;;9.00;57.50;;;;;;5033568;28;20034;-75
2023/03/27 10:22:53;;;;;;;10.70;2.30;;;9.10;57.30;;;;;;5024653;28;20060;-74
2023/03/27 10:25:36;;;;;;;12.27;2.92;;;9.30;57.10;;;;;;5020570;28;20029;-74
2023/03/27 10:28:20;;;;;;;11.45;3.13;;;9.60;57.50;;;;;;5020559;28;20569;-75
2023/03/27 10:30:56;;;;;;;8.77;2.75;;;9.60;56.30;;;;;;5033560;28;20030;-74
2023/03/27 10:33:28;;;;;;;9.60;2.72;;;9.10;55.10;;;;;;5030285;28;20489;-75
2023/03/27 10:35:55;;;;;;;8.45;3.15;;;8.60;63.40;;;;;;5022384;28;20145;-76
2023/03/27 10:38:21;;;;;;;10.35;2.80;;;8.10;64.70;;;;;;5026861;28;20112;-76
2023/03/27 10:40:49;;;;;;;7.63;2.45;;;8.00;67.10;;;;;;5016895;28;20453;-76
2023/03/27 10:43:27;;;;;;;11.23;3.25;;;8.40;64.20;;;;;;5035523;28;20036;-76
2023/03/27 10:45:57;;;;;;;10.55;2.90;;;8.30;64.50;;;;;;5024570;28;20485;-76
2023/03/27 10:48:40;;;;;;;13.45;3.10;;;8.80;64.90;;;;;;5027087;28;20497;-76
2023/03/27 10:51:17;;;;;;;9.02;2.30;;;9.40;63.60;;;;;;5029771;28;20057;-76
2023/03/27 10:53:50;;;;;;;9.93;2.78;;;9.60;61.10;;;;;;5032806;28;20025;-77
2023/03/27 10:56:38;;;;;;;9.77;2.38;;;9.50;59.20;;;;;;5028624;28;20053;-75
2023/03/27 10:59:43;;;;;;;9.00;2.42;;;9.10;59.00;;;;;;5022535;28;20036;-75
2023/03/27 11:02:30;;;;;;;11.02;2.55;;;9.00;58.20;;;;;;5018757;28;20404;-76
2023/03/27 11:05:07;;;;;;;9.05;2.42;;;8.60;58.60;;;;;;5029949;28;20021;-74
2023/03/27 11:07:48;;;;;;;10.40;2.80;;;8.40;58.00;;;;;;5031450;28;20037;-74
2023/03/27 11:10:20;;;;;;;9.05;2.40;;;8.30;60.00;;;;;;5030679;28;20036;-73
2023/03/27 11:13:03;;;;;;;9.52;2.42;;;8.40;59.60;;;;;;5009414;28;20160;-73
2023/03/27 11:15:35;;;;;;;9.43;2.60;;;7.70;63.90;;;;;;5021237;28;20619;-73
2023/03/27 11:18:27;;;;;;;9.60;2.28;;;7.60;66.70;;;;;;5001902;28;20662;-73
2023/03/27 11:20:59;;;;;;;9.13;2.50;;;7.40;67.80;;;;;;4990561;28;20133;-73
2023/03/27 11:23:38;;;;;;;7.75;2.13;;;7.00;68.10;;;;;;5015502;28;20053;-73
2023/03/27 11:26:09;;;;;;;15.65;2.38;;;6.90;70.70;;;;;;5017806;28;20080;-73
2023/03/27 11:29:10;;;;;;;7.38;2.30;;;6.60;70.20;;;;;;5017265;28;20105;-73
2023/03/27 11:31:45;;;;;;;6.60;2.05;;;6.60;69.20;;;;;;5012879;28;20038;-74
2023/03/27 11:34:47;;;;;;;7.65;2.50;;;6.80;68.40;;;;;;5017759;28;20025;-74
2023/03/27 11:37:31;;;;;;;9.55;2.88;;;7.10;66.50;;;;;;5025369;28;20132;-74
2023/03/27 11:40:01;;;;;;;5.85;2.25;;;7.20;63.90;;;;;;5025633;28;20036;-74
2023/03/27 11:42:31;;;;;;;8.70;2.25;;;7.30;63.90;;;;;;5027490;28;20045;-73
2023/03/27 11:44:57;;;;;;;6.45;1.90;;;7.30;62.80;;;;;;5030107;28;20025;-73
2023/03/27 11:48:06;;;;;;;8.45;2.42;;;7.30;63.90;;;;;;5026560;28;20067;-73
2023/03/27 11:50:42;;;;;;;10.77;2.38;;;7.50;64.50;;;;;;5025653;28;20481;-74
2023/03/27 11:53:34;;;;;;;7.75;2.35;;;7.80;65.90;;;;;;5026812;28;20044;-74
2023/03/27 11:56:14;;;;;;;8.48;3.05;;;8.00;62.90;;;;;;5017782;28;20407;-74
2023/03/27 11:58:50;;;;;;;6.63;2.05;;;8.10;61.50;;;;;;5028445;28;20615;-74
2023/03/27 12:01:50;;;;;;;9.30;2.20;;;8.30;61.50;;;;;;5033589;28;20155;-73
2023/03/27 12:04:41;;;;;;;11.45;2.58;;;8.40;57.60;;;;;;5019448;28;20033;-72
2023/03/27 12:07:17;;;;;;;7.80;2.60;;;8.30;57.50;;;;;;5026241;28;20049;-73
2023/03/27 12:10:15;;;;;;;6.57;2.03;;;8.30;58.10;;;;;;5031008;28;20056;-73
2023/03/27 12:12:46;;;;;;;8.35;2.70;;;8.40;58.70;;;;;;4992766;28;20066;-73
2023/03/27 12:15:48;;;;;;;8.00;2.47;;;8.70;59.90;;;;;;5025367;28;20058;-73
2023/03/27 12:18:32;;;;;;;10.27;2.58;;;9.10;60.10;;;;;;5022937;28;20422;-72
2023/03/27 12:21:23;;;;;;;8.27;2.58;;;9.20;57.50;;;;;;5027445;28;20040;-72
2023/03/27 12:24:33;;;;;;;10.00;2.22;;;9.10;55.80;;;;;;5024176;28;20030;-72
2023/03/27 12:27:17;;;;;;;6.40;1.90;;;8.90;54.60;;;;;;5007393;28;20029;-73
2023/03/27 12:30:13;;;;;;;8.23;2.35;;;9.00;53.70;;;;;;5023183;28;20030;-73
2023/03/27 12:32:45;;;;;;;9.50;2.88;;;9.20;54.40;;;;;;5030009;28;20041;-73
2023/03/27 12:35:17;;;;;;;9.48;2.53;;;9.10;52.80;;;;;;5008948;28;20075;-73
2023/03/27 12:37:48;;;;;;;11.10;2.67;;;9.10;53.10;;;;;;5022837;28;20768;-73
2023/03/27 12:40:29;;;;;;;8.20;2.58;;;9.30;55.60;;;;;;5036549;28;20030;-72
2023/03/27 12:43:20;;;;;;;6.88;2.00;;;9.70;55.10;;;;;;5022501;28;20433;-72
2023/03/27 12:46:17;;;;;;;9.82;2.88;;;9.80;51.80;;;;;;5018763;28;20045;-72
2023/03/27 12:48:53;;;;;;;9.43;2.17;;;9.90;52.00;;;;;;5013367;28;20343;-73
2023/03/27 12:51:40;;;;;;;10.82;2.50;;;10.10;53.30;;;;;;5010378;28;21400;-72
2023/03/27 12:54:24;;;;;;;9.02;2.33;;;10.30;52.20;;;;;;5015323;28;20048;-74
2023/03/27 12:56:54;;;;;;;8.65;2.42;;;10.30;51.90;;;;;;5017899;28;20088;-72
2023/03/27 12:59:26;;;;;;;9.10;2.00;;;9.70;52.80;;;;;;5022145;28;20040;-73
2023/03/27 13:02:00;;;;;;;6.85;2.33;;;9.10;55.40;;;;;;5025546;28;20101;-72
2023/03/27 13:04:43;;;;;;;8.35;2.13;;;8.90;58.40;;;;;;5024342;28;20029;-73
2023/03/27 13:07:37;;;;;;;6.72;1.77;;;8.80;58.90;;;;;;5027853;28;20203;-72
2023/03/27 13:10:30;;;;;;;8.77;2.28;;;8.60;57.20;;;;;;5026350;28;20021;-72
2023/03/27 13:13:32;;;;;;;8.18;2.20;;;8.70;59.00;;;;;;5021589;28;20037;-72
2023/03/27 13:16:44;;;;;;;8.98;2.55;;;8.60;59.90;;;;;;5018837;28;20053;-72
2023/03/27 13:19:51;;;;;;;12.63;3.10;;;8.30;64.50;;;;;;5006124;28;20525;-72
2023/03/27 13:22:26;;;;;;;11.35;2.58;;;8.20;65.30;;;;;;4999771;28;20049;-72
2023/03/27 13:25:11;;;;;;;9.32;2.83;;;8.10;64.70;;;;;;5028834;28;20324;-71